Terminal Aerodrome Forecast
Issued by NWS Twin Cities, MN

Home | Current Version | Previous Version | Graphics & Text | Print | Product List | Glossary On
Versions: 1 2 3 4 5 6 7 8 9 10 11 12 13 14 15 16 17 18 19 20 21 22 23
000
FTUS43 KMPX 291134
TAFEAU
TAF
KEAU 291134Z 2912/3012 00000KT 1/2SM FG BKN002
      TEMPO 2912/2914 2SM BR BKN005
     FM291400 30005KT 6SM BR OVC050
     FM291800 30009KT 6SM -RA BR OVC040
     FM292000 31010KT 3SM -TSRA BR OVC030CB
     FM300200 30006KT P6SM VCSH SCT050 BKN120
     FM300400 32003KT P6SM SKC
      TEMPO 3008/3012 3SM BR SCT001=

USA.gov is the U.S. government's official web portal to all federal, state and local government web resources and services.